Time;durP1;ratioP1;P1;durP2;ratioP2;P2;SDS_P1;SDS_P2;PMS_P1;PMS_P2;Temp;Humidity;BMP_temperature;BMP_pressure;BME280_temperature;BME280_humidity;BME280_pressure;Samples;Min_cycle;Max_cycle;Signal;HPM_P1;HPM_P2
2022/08/08 00:00:03;;;;;;;7.00;5.72;;;;;;;26.04;100.00;100146.78;5027191;28;20695;-75
2022/08/08 00:02:40;;;;;;;6.38;5.80;;;;;;;26.07;100.00;100152.81;5028457;28;20198;-75
2022/08/08 00:05:16;;;;;;;6.28;5.78;;;;;;;26.14;100.00;100164.88;5033641;28;20199;-75
2022/08/08 00:07:51;;;;;;;11.68;6.63;;;;;;;26.04;100.00;100155.59;5031538;28;20204;-75
2022/08/08 00:10:23;;;;;;;6.90;6.30;;;;;;;26.10;100.00;100157.97;5034827;28;20230;-75
2022/08/08 00:12:55;;;;;;;8.88;5.95;;;;;;;25.99;100.00;100159.41;5042539;28;20714;-75
2022/08/08 00:15:28;;;;;;;6.88;5.55;;;;;;;26.06;100.00;100167.03;5013581;28;20210;-75
2022/08/08 00:17:59;;;;;;;8.80;6.22;;;;;;;26.02;100.00;100170.75;5047161;28;20195;-75
2022/08/08 00:20:34;;;;;;;10.48;6.50;;;;;;;25.98;100.00;100155.88;5033179;28;20242;-75
2022/08/08 00:23:04;;;;;;;7.68;6.07;;;;;;;26.02;100.00;100173.41;5050907;28;20199;-75
2022/08/08 00:25:36;;;;;;;6.72;6.10;;;;;;;25.95;100.00;100164.00;5038491;28;20210;-75
2022/08/08 00:28:08;;;;;;;6.53;6.03;;;;;;;25.75;100.00;100145.47;5076791;28;20731;-75
2022/08/08 00:30:41;;;;;;;6.90;6.28;;;;;;;25.65;100.00;100152.13;5092895;28;20243;-75
2022/08/08 00:33:13;;;;;;;11.25;5.93;;;;;;;25.79;100.00;100165.63;5091661;28;20202;-75
2022/08/08 00:35:47;;;;;;;9.38;6.32;;;;;;;25.74;100.00;100188.03;5092706;28;20226;-75
2022/08/08 00:38:41;;;;;;;8.63;5.85;;;;;;;25.80;100.00;100183.31;5093276;28;20335;-76
2022/08/08 00:41:55;;;;;;;6.60;6.00;;;;;;;25.79;100.00;100181.56;5086677;28;20203;-75
2022/08/08 00:44:52;;;;;;;8.95;6.82;;;;;;;25.53;100.00;100171.28;4979105;28;20193;-75
2022/08/08 00:47:59;;;;;;;7.95;5.75;;;;;;;25.55;100.00;100166.75;5029866;28;20200;-75
2022/08/08 00:51:16;;;;;;;7.47;4.75;;;;;;;25.47;100.00;100172.38;4901593;28;20233;-75
2022/08/08 00:54:06;;;;;;;6.35;5.05;;;;;;;25.41;100.00;100182.41;4919976;29;20222;-75
2022/08/08 00:57:28;;;;;;;7.97;5.68;;;;;;;25.31;100.00;100157.19;4951923;28;20209;-75
2022/08/08 01:00:07;;;;;;;9.00;5.03;;;;;;;25.35;100.00;100178.25;4857607;29;20213;-75
2022/08/08 01:03:25;;;;;;;13.38;6.28;;;;;;;25.45;100.00;100186.66;4810958;29;20194;-75
2022/08/08 01:06:22;;;;;;;8.05;6.47;;;;;;;25.28;100.00;100167.97;4856970;29;20229;-76
2022/08/08 01:09:17;;;;;;;6.65;5.82;;;;;;;25.27;100.00;100184.81;4857323;29;20198;-75
2022/08/08 01:12:16;;;;;;;5.90;5.40;;;;;;;25.08;100.00;100174.97;4784769;30;20587;-75
2022/08/08 01:15:30;;;;;;;8.57;6.22;;;;;;;25.12;100.00;100183.66;4784274;30;20205;-75
2022/08/08 01:18:33;;;;;;;11.65;6.10;;;;;;;25.20;100.00;100188.66;4795335;29;20716;-75
2022/08/08 01:21:32;;;;;;;8.93;6.25;;;;;;;25.13;100.00;100188.94;4825657;29;20281;-75
2022/08/08 01:24:46;;;;;;;10.23;5.85;;;;;;;25.07;100.00;100189.19;4869815;29;20232;-75
2022/08/08 01:27:58;;;;;;;5.78;5.32;;;;;;;24.97;100.00;100190.50;4848735;29;20213;-75
2022/08/08 01:30:52;;;;;;;6.07;5.22;;;;;;;24.82;100.00;100183.16;4782266;30;20236;-75
2022/08/08 01:33:59;;;;;;;6.68;5.85;;;;;;;24.86;100.00;100184.81;4781984;29;20685;-75
2022/08/08 01:37:05;;;;;;;6.28;5.68;;;;;;;24.84;100.00;100186.63;4757665;30;20320;-76
2022/08/08 01:39:53;;;;;;;7.43;5.63;;;;;;;24.59;100.00;100185.88;4766137;30;20210;-75
2022/08/08 01:42:31;;;;;;;6.28;5.68;;;;;;;24.65;100.00;100175.88;4753117;30;20206;-75
2022/08/08 01:45:07;;;;;;;11.50;5.47;;;;;;;24.17;100.00;100108.97;4753710;30;20704;-75
2022/08/08 01:47:50;;;;;;;7.38;5.25;;;;;;;24.60;100.00;100190.28;4756629;30;20267;-76
2022/08/08 01:50:31;;;;;;;6.13;5.15;;;;;;;24.64;100.00;100183.91;4817236;29;20239;-76
2022/08/08 01:53:09;;;;;;;12.68;5.53;;;;;;;24.64;100.00;100189.22;4819548;29;20226;-75
2022/08/08 01:55:47;;;;;;;6.85;5.25;;;;;;;24.53;100.00;100181.72;4820049;29;20211;-75
2022/08/08 01:58:29;;;;;;;17.17;5.72;;;;;;;24.48;100.00;100183.66;4803666;29;20218;-75
2022/08/08 02:01:10;;;;;;;9.30;6.03;;;;;;;24.43;100.00;100203.34;4818863;29;20217;-75
2022/08/08 02:03:50;;;;;;;8.90;5.90;;;;;;;24.41;100.00;100182.19;4876776;29;20336;-75
2022/08/08 02:06:28;;;;;;;6.80;6.10;;;;;;;24.55;100.00;100200.19;4898850;29;20215;-75
2022/08/08 02:09:03;;;;;;;14.52;6.07;;;;;;;24.40;100.00;100206.97;4955144;28;20205;-75
2022/08/08 02:11:34;;;;;;;5.32;4.82;;;;;;;23.99;100.00;100152.91;4969056;28;20222;-75
2022/08/08 02:14:05;;;;;;;8.50;6.13;;;;;;;24.17;100.00;100186.69;5069894;28;20205;-75
2022/08/08 02:16:43;;;;;;;7.45;5.57;;;;;;;24.12;100.00;100201.84;5078341;28;20202;-75
2022/08/08 02:19:17;;;;;;;6.97;5.55;;;;;;;24.14;100.00;100221.25;5077048;28;20197;-75
2022/08/08 02:24:50;;;;;;;10.50;5.72;;;;;;;24.11;100.00;100209.88;5061520;28;20252;-75
2022/08/08 02:27:20;;;;;;;5.97;5.40;;;;;;;23.91;100.00;100197.38;5067827;28;20234;-75
2022/08/08 02:30:09;;;;;;;9.80;5.43;;;;;;;24.00;100.00;100215.56;5074503;28;20610;-75
2022/08/08 02:32:56;;;;;;;5.75;5.22;;;;;;;23.86;100.00;100214.38;5068343;28;20226;-75
2022/08/08 02:35:53;;;;;;;7.00;5.47;;;;;;;24.14;100.00;100226.56;5074385;28;20567;-77
2022/08/08 02:38:49;;;;;;;11.23;6.10;;;;;;;24.27;100.00;100226.94;5087668;28;20191;-77
2022/08/08 02:41:44;;;;;;;6.75;5.93;;;;;;;24.19;100.00;100224.56;5074878;28;20191;-76
2022/08/08 02:44:55;;;;;;;6.22;5.55;;;;;;;24.12;100.00;100232.78;5078393;28;20205;-75
2022/08/08 02:48:03;;;;;;;9.68;6.00;;;;;;;24.15;100.00;100235.38;5081541;28;20202;-75
2022/08/08 02:51:07;;;;;;;6.60;5.88;;;;;;;24.06;100.00;100228.59;5089003;28;20214;-75
2022/08/08 02:53:56;;;;;;;7.80;6.13;;;;;;;23.96;100.00;100231.63;5052354;28;20671;-75
2022/08/08 02:56:55;;;;;;;12.98;6.63;;;;;;;23.87;100.00;100227.53;5070522;28;20263;-75
2022/08/08 03:00:00;;;;;;;10.70;5.88;;;;;;;23.83;100.00;100225.06;5074116;28;20205;-75
2022/08/08 03:03:14;;;;;;;6.75;6.13;;;;;;;23.92;100.00;100230.88;5070469;28;20202;-75
2022/08/08 03:06:26;;;;;;;9.77;6.18;;;;;;;23.72;100.00;100204.28;5057839;28;20225;-76
2022/08/08 03:09:54;;;;;;;9.82;5.88;;;;;;;23.89;100.00;100246.03;5070536;28;20206;-75
2022/08/08 03:13:09;;;;;;;12.02;5.95;;;;;;;23.80;100.00;100238.41;5050344;28;20195;-75
2022/08/08 03:16:12;;;;;;;9.27;5.90;;;;;;;23.91;100.00;100250.34;5012893;28;20212;-74
2022/08/08 03:18:56;;;;;;;6.80;6.07;;;;;;;23.90;100.00;100243.31;5018267;28;20219;-75
2022/08/08 03:21:22;;;;;;;8.05;5.68;;;;;;;23.50;100.00;100180.38;5026597;28;20204;-75
2022/08/08 03:23:51;;;;;;;7.72;6.10;;;;;;;23.84;100.00;100254.13;5027352;28;20196;-75
2022/08/08 03:26:29;;;;;;;7.93;6.30;;;;;;;23.74;100.00;100213.03;5027196;28;20199;-75
2022/08/08 03:29:01;;;;;;;8.35;6.20;;;;;;;23.88;100.00;100255.75;5017055;28;20691;-75
2022/08/08 03:34:14;;;;;;;7.07;6.32;;;;;;;23.72;100.00;100259.91;5024621;28;20234;-75
2022/08/08 03:36:42;;;;;;;8.27;5.95;;;;;;;23.41;100.00;100228.34;5026113;28;20306;-75
2022/08/08 03:39:12;;;;;;;11.07;6.00;;;;;;;23.61;100.00;100267.34;5024602;28;20196;-75
2022/08/08 03:41:40;;;;;;;8.05;5.65;;;;;;;23.52;100.00;100272.94;5026810;28;20227;-75
2022/08/08 03:44:07;;;;;;;6.57;5.80;;;;;;;23.37;100.00;100241.69;4971657;28;20188;-75
2022/08/08 03:46:44;;;;;;;7.65;6.40;;;;;;;23.75;100.00;100269.50;5010537;28;20207;-75
2022/08/08 03:49:18;;;;;;;7.40;6.20;;;;;;;23.92;100.00;100272.41;5010419;28;20203;-75
2022/08/08 03:51:46;;;;;;;13.88;6.00;;;;;;;24.34;100.00;100281.44;5063774;28;20689;-75
2022/08/08 03:54:15;;;;;;;7.57;5.78;;;;;;;24.70;100.00;100284.44;5037075;28;20629;-75
2022/08/08 03:56:42;;;;;;;8.23;5.95;;;;;;;24.98;100.00;100263.88;5081152;28;20215;-74
2022/08/08 03:59:09;;;;;;;6.40;5.47;;;;;;;25.15;100.00;100292.34;5073771;28;20226;-74
2022/08/08 04:01:37;;;;;;;10.35;5.70;;;;;;;24.67;100.00;100221.78;5073794;28;20210;-74
2022/08/08 04:04:05;;;;;;;11.77;5.35;;;;;;;25.03;100.00;100261.91;5077436;28;20201;-75
2022/08/08 04:06:32;;;;;;;7.72;5.65;;;;;;;25.46;100.00;100287.50;5080674;28;20682;-75
2022/08/08 04:08:59;;;;;;;5.97;4.60;;;;;;;25.79;100.00;100285.19;5076015;28;20222;-75
2022/08/08 04:11:27;;;;;;;8.57;5.78;;;;;;;25.79;100.00;100281.69;5074074;28;20269;-75
2022/08/08 04:13:54;;;;;;;9.68;4.75;;;;;;;25.78;100.00;100278.16;5076527;28;20889;-75
2022/08/08 04:16:21;;;;;;;5.57;5.07;;;;;;;25.94;100.00;100300.47;5073190;28;20218;-75
2022/08/08 04:18:48;;;;;;;6.13;5.45;;;;;;;26.27;100.00;100303.44;5038494;28;20206;-75
2022/08/08 04:21:15;;;;;;;5.65;5.10;;;;;;;26.25;100.00;100289.34;5074293;28;20219;-75
2022/08/08 04:23:42;;;;;;;8.52;5.03;;;;;;;26.37;100.00;100309.16;5074122;28;20194;-75
2022/08/08 04:26:08;;;;;;;5.72;5.20;;;;;;;26.04;100.00;100311.56;5092718;28;20217;-74
2022/08/08 04:28:37;;;;;;;5.53;5.07;;;;;;;26.38;100.00;100318.88;5075063;28;20201;-73
2022/08/08 04:31:04;;;;;;;6.22;5.63;;;;;;;25.81;100.00;100312.56;5073320;28;20229;-75
2022/08/08 04:33:31;;;;;;;8.52;5.45;;;;;;;26.02;100.00;100324.03;5084022;28;20205;-76
2022/08/08 04:35:58;;;;;;;6.72;5.18;;;;;;;25.61;100.00;100313.41;5092639;28;20240;-77
2022/08/08 04:38:25;;;;;;;6.63;5.93;;;;;;;25.85;100.00;100295.56;5057428;28;20229;-76
2022/08/08 04:40:52;;;;;;;7.40;4.80;;;;;;;26.62;100.00;100329.25;5089910;28;20307;-77
2022/08/08 04:43:18;;;;;;;10.55;5.18;;;;;;;26.58;100.00;100329.47;5075249;28;20590;-76
2022/08/08 04:45:47;;;;;;;6.25;5.63;;;;;;;26.49;100.00;100335.22;5091203;28;20202;-76
2022/08/08 04:48:13;;;;;;;8.07;5.15;;;;;;;26.01;100.00;100301.91;5090255;28;20194;-77
2022/08/08 04:50:40;;;;;;;9.23;6.05;;;;;;;26.53;100.00;100315.53;5048932;28;20230;-76
2022/08/08 04:53:07;;;;;;;6.55;5.18;;;;;;;27.09;99.54;100337.66;5084217;28;20198;-77
2022/08/08 04:55:34;;;;;;;6.00;5.05;;;;;;;26.50;100.00;100329.84;5092870;28;20209;-74
2022/08/08 04:58:01;;;;;;;10.82;5.75;;;;;;;26.48;100.00;100344.13;5074789;28;20211;-75
2022/08/08 05:00:28;;;;;;;10.70;6.20;;;;;;;26.96;100.00;100349.84;5053846;28;20194;-75
2022/08/08 05:02:56;;;;;;;9.93;5.80;;;;;;;27.02;97.26;100341.56;5082231;28;20247;-75
2022/08/08 05:05:23;;;;;;;8.15;5.38;;;;;;;26.53;97.31;100272.97;5074468;28;20316;-72
2022/08/08 05:07:50;;;;;;;5.97;5.45;;;;;;;27.13;96.40;100340.16;5092769;28;20202;-75
2022/08/08 05:10:16;;;;;;;10.20;6.05;;;;;;;26.69;97.09;100356.41;5082434;28;20203;-73
2022/08/08 05:12:43;;;;;;;9.82;7.20;;;;;;;26.73;99.21;100352.69;5070191;28;20593;-75
2022/08/08 05:15:11;;;;;;;6.78;6.22;;;;;;;26.49;100.00;100361.81;5072338;28;20195;-76
2022/08/08 05:17:37;;;;;;;7.15;5.47;;;;;;;26.52;99.39;100359.88;5072219;28;20201;-75
2022/08/08 05:20:08;;;;;;;6.65;6.05;;;;;;;26.60;100.00;100364.84;5061973;28;20577;-74
2022/08/08 05:22:35;;;;;;;11.43;6.20;;;;;;;27.20;96.81;100363.75;5067503;28;20226;-74
2022/08/08 05:25:02;;;;;;;6.07;5.57;;;;;;;27.60;92.46;100360.03;5075578;28;20209;-73
2022/08/08 05:27:28;;;;;;;6.72;5.43;;;;;;;27.26;93.36;100358.13;5076555;28;20202;-74
2022/08/08 05:29:55;;;;;;;8.50;5.68;;;;;;;27.36;93.04;100371.88;5084533;28;20215;-75
2022/08/08 05:32:22;;;;;;;7.40;6.32;;;;;;;27.48;92.47;100366.81;5035575;28;20222;-76
2022/08/08 05:34:51;;;;;;;9.02;6.53;;;;;;;26.66;98.48;100369.88;5072058;28;20210;-74
2022/08/08 05:37:25;;;;;;;7.88;6.55;;;;;;;26.42;100.00;100369.22;5074762;28;20230;-75
2022/08/08 05:39:53;;;;;;;8.80;6.82;;;;;;;26.05;100.00;100367.28;5071911;28;20230;-73
2022/08/08 05:42:23;;;;;;;6.90;6.30;;;;;;;25.42;100.00;100330.19;5033385;28;20207;-75
2022/08/08 05:44:51;;;;;;;8.50;6.05;;;;;;;25.41;100.00;100374.44;5035162;28;20283;-76
2022/08/08 05:47:20;;;;;;;9.80;6.65;;;;;;;25.20;100.00;100353.22;5071655;28;20195;-73
2022/08/08 05:49:47;;;;;;;7.90;6.18;;;;;;;25.03;100.00;100320.28;5069642;28;20581;-75
2022/08/08 05:52:14;;;;;;;10.68;6.50;;;;;;;25.41;100.00;100347.03;5065077;28;20223;-76
2022/08/08 05:54:43;;;;;;;8.43;6.32;;;;;;;25.70;100.00;100383.03;5033251;28;20221;-76
2022/08/08 05:57:15;;;;;;;8.07;6.05;;;;;;;25.04;100.00;100342.38;5055698;28;20200;-75
2022/08/08 05:59:46;;;;;;;8.88;6.60;;;;;;;25.43;100.00;100383.22;5069642;28;20274;-75
2022/08/08 06:05:04;;;;;;;7.72;6.70;;;;;;;25.65;100.00;100380.56;5051002;28;20204;-74
2022/08/08 06:07:33;;;;;;;7.53;6.82;;;;;;;25.74;100.00;100382.84;5050961;28;20664;-74
2022/08/08 06:10:03;;;;;;;9.98;6.65;;;;;;;25.60;100.00;100375.47;5051025;28;20206;-76
2022/08/08 06:12:32;;;;;;;9.48;7.28;;;;;;;25.58;100.00;100384.38;5050708;28;20234;-75
2022/08/08 06:15:00;;;;;;;11.05;7.22;;;;;;;25.48;100.00;100365.31;5067905;28;20211;-75
2022/08/08 06:17:27;;;;;;;10.45;7.22;;;;;;;25.59;100.00;100386.13;5069799;28;20209;-75
2022/08/08 06:19:55;;;;;;;10.18;6.90;;;;;;;25.37;100.00;100387.91;5066969;28;20203;-75
2022/08/08 06:22:22;;;;;;;7.07;6.18;;;;;;;25.18;100.00;100362.09;5067425;28;20208;-76
2022/08/08 06:24:49;;;;;;;9.05;7.10;;;;;;;25.47;100.00;100379.50;5070446;28;20336;-75
2022/08/08 06:27:21;;;;;;;11.13;7.15;;;;;;;25.62;100.00;100378.91;5067697;28;20218;-76
2022/08/08 06:29:55;;;;;;;8.52;7.20;;;;;;;25.82;100.00;100374.53;5060550;28;20210;-76
2022/08/08 06:32:29;;;;;;;5.70;5.22;;;;;;;25.58;100.00;100384.38;5050442;28;20220;-75
2022/08/08 06:35:00;;;;;;;8.85;7.15;;;;;;;25.97;100.00;100380.03;5050555;28;20264;-76
2022/08/08 06:37:31;;;;;;;12.70;7.53;;;;;;;25.82;100.00;100379.84;5030683;28;20223;-75
2022/08/08 06:40:05;;;;;;;9.20;7.22;;;;;;;26.04;100.00;100384.16;5049935;28;20204;-75
2022/08/08 06:42:36;;;;;;;8.65;7.22;;;;;;;25.96;100.00;100388.09;5047928;28;20211;-76
2022/08/08 06:45:04;;;;;;;7.97;7.03;;;;;;;26.13;100.00;100383.78;5066008;28;20198;-76
2022/08/08 06:47:31;;;;;;;8.07;7.30;;;;;;;25.77;100.00;100382.69;5058003;28;20203;-75
2022/08/08 06:49:58;;;;;;;7.80;6.68;;;;;;;25.37;100.00;100371.97;5066133;28;20210;-76
2022/08/08 06:52:26;;;;;;;9.07;8.15;;;;;;;25.97;100.00;100382.69;5067856;28;20628;-76
2022/08/08 06:54:54;;;;;;;11.35;7.22;;;;;;;26.19;100.00;100380.00;5064117;28;20604;-75
2022/08/08 06:57:23;;;;;;;10.95;7.88;;;;;;;26.35;100.00;100375.75;5065218;28;20203;-78
2022/08/08 06:59:52;;;;;;;14.02;7.47;;;;;;;26.46;100.00;100384.09;5063205;28;20678;-77
2022/08/08 07:02:23;;;;;;;12.80;6.78;;;;;;;26.92;100.00;100390.84;5063302;28;20210;-77
2022/08/08 07:04:54;;;;;;;13.77;7.85;;;;;;;27.14;100.00;100381.84;5065047;28;20290;-77
2022/08/08 07:07:31;;;;;;;9.27;6.93;;;;;;;26.51;100.00;100383.88;5065212;28;20733;-76
2022/08/08 07:10:03;;;;;;;8.38;7.55;;;;;;;26.48;100.00;100384.88;5051790;28;20610;-77
2022/08/08 07:12:39;;;;;;;8.65;7.13;;;;;;;26.37;100.00;100373.88;5062220;28;20222;-75
2022/08/08 07:15:10;;;;;;;8.68;7.45;;;;;;;26.51;100.00;100381.22;5055501;28;20290;-76
2022/08/08 07:17:43;;;;;;;9.20;7.80;;;;;;;26.36;100.00;100366.81;5067149;28;20607;-78
2022/08/08 07:20:16;;;;;;;7.60;6.43;;;;;;;26.60;100.00;100367.50;5052231;28;20306;-77
2022/08/08 07:22:53;;;;;;;9.20;7.40;;;;;;;26.81;99.37;100363.84;5056994;28;20203;-75
2022/08/08 07:25:22;;;;;;;7.75;7.03;;;;;;;26.72;100.00;100390.03;5069633;28;20210;-78
2022/08/08 07:27:54;;;;;;;8.32;7.03;;;;;;;26.65;100.00;100381.44;5069220;28;20263;-77
2022/08/08 07:30:23;;;;;;;11.55;7.60;;;;;;;26.84;100.00;100378.81;5034345;28;20222;-76
2022/08/08 07:32:50;;;;;;;8.45;7.43;;;;;;;26.72;100.00;100385.53;5060386;28;20218;-77
2022/08/08 07:35:17;;;;;;;10.82;8.02;;;;;;;26.76;100.00;100386.25;5074464;28;20191;-77
2022/08/08 07:37:46;;;;;;;7.10;6.50;;;;;;;26.65;100.00;100338.88;5073929;28;20239;-77
2022/08/08 07:40:14;;;;;;;8.20;7.07;;;;;;;27.19;98.26;100387.78;5055114;28;20667;-77
2022/08/08 07:42:42;;;;;;;7.45;6.65;;;;;;;27.57;94.75;100393.00;5055384;28;20229;-78
2022/08/08 07:45:10;;;;;;;9.75;7.15;;;;;;;27.36;94.84;100398.50;5074104;28;20233;-78
2022/08/08 07:47:38;;;;;;;12.73;7.57;;;;;;;27.21;95.97;100381.47;5064592;28;20216;-78
2022/08/08 07:50:06;;;;;;;8.07;6.63;;;;;;;27.22;98.95;100400.97;5068872;28;20203;-78
2022/08/08 07:52:33;;;;;;;12.32;6.70;;;;;;;27.27;95.11;100404.25;5052862;28;20233;-78
2022/08/08 07:55:05;;;;;;;8.77;6.63;;;;;;;27.47;93.28;100398.84;5066871;28;20291;-78
2022/08/08 07:57:41;;;;;;;13.52;7.70;;;;;;;27.82;91.58;100392.66;5063192;28;20589;-78
2022/08/08 08:00:10;;;;;;;8.07;6.47;;;;;;;28.03;91.60;100391.53;5058954;28;20649;-77
2022/08/08 08:02:42;;;;;;;7.55;6.80;;;;;;;28.04;91.78;100390.56;5072249;28;20284;-77
2022/08/08 08:05:15;;;;;;;16.55;7.38;;;;;;;28.02;89.33;100394.28;5069347;28;20202;-78
2022/08/08 08:07:42;;;;;;;8.00;7.30;;;;;;;27.81;88.51;100366.06;5057538;28;20203;-77
2022/08/08 08:10:12;;;;;;;9.07;7.50;;;;;;;28.04;89.33;100397.69;5053389;28;20199;-78
2022/08/08 08:12:43;;;;;;;10.40;7.45;;;;;;;27.85;88.38;100360.50;5053552;28;20231;-79
2022/08/08 08:15:12;;;;;;;7.00;6.32;;;;;;;28.22;85.85;100403.94;5055872;28;20203;-78
2022/08/08 08:17:44;;;;;;;9.68;7.20;;;;;;;27.97;86.73;100374.97;5053449;28;20203;-77
2022/08/08 08:20:13;;;;;;;8.30;6.93;;;;;;;27.78;88.60;100369.75;5053400;28;20722;-76
2022/08/08 08:22:40;;;;;;;10.15;6.45;;;;;;;27.74;87.42;100397.50;5053327;28;20910;-78
2022/08/08 08:25:07;;;;;;;7.40;6.72;;;;;;;28.14;86.00;100398.16;5053349;28;20211;-78
2022/08/08 08:27:34;;;;;;;6.50;5.90;;;;;;;27.78;86.85;100385.75;5016793;28;20199;-76
2022/08/08 08:30:01;;;;;;;8.30;6.57;;;;;;;27.85;86.61;100370.28;5052163;28;20195;-76
2022/08/08 08:32:28;;;;;;;7.43;6.68;;;;;;;28.23;87.52;100381.63;5052013;28;20931;-76
2022/08/08 08:34:56;;;;;;;9.27;6.50;;;;;;;28.32;84.22;100386.50;5051979;28;20234;-76
2022/08/08 08:37:23;;;;;;;7.85;7.05;;;;;;;28.55;84.42;100380.78;5051683;28;20352;-75
2022/08/08 08:39:50;;;;;;;6.93;6.22;;;;;;;28.60;81.75;100392.09;5017601;28;20210;-76
2022/08/08 08:42:18;;;;;;;6.95;6.25;;;;;;;28.97;80.85;100381.13;5052622;28;20203;-76
2022/08/08 08:44:45;;;;;;;8.02;6.90;;;;;;;28.80;79.20;100370.53;5053112;28;20203;-78
2022/08/08 08:47:12;;;;;;;10.95;6.65;;;;;;;28.92;77.51;100383.19;5052914;28;20219;-76
2022/08/08 08:49:39;;;;;;;6.85;5.70;;;;;;;28.50;80.65;100374.84;5017396;28;20287;-75
2022/08/08 08:52:08;;;;;;;6.75;6.15;;;;;;;28.69;79.21;100375.59;5054823;28;20906;-76
2022/08/08 08:54:36;;;;;;;10.98;6.60;;;;;;;28.88;80.79;100378.09;5070064;28;20256;-75
2022/08/08 08:57:06;;;;;;;7.30;6.35;;;;;;;29.02;77.10;100372.84;5073003;28;20194;-76
2022/08/08 08:59:39;;;;;;;11.02;6.22;;;;;;;28.76;78.53;100371.63;5072960;28;20682;-75
2022/08/08 09:02:16;;;;;;;8.15;6.47;;;;;;;29.10;77.74;100369.75;5037229;28;20207;-75
2022/08/08 09:04:45;;;;;;;6.38;5.80;;;;;;;29.17;76.55;100373.81;5071237;28;20574;-75
2022/08/08 09:07:16;;;;;;;10.45;6.70;;;;;;;29.40;76.64;100373.38;5072535;28;20202;-75
2022/08/08 09:09:46;;;;;;;7.07;6.38;;;;;;;29.15;75.80;100365.00;5059236;28;20195;-76
2022/08/08 09:12:14;;;;;;;7.93;6.88;;;;;;;29.33;74.45;100355.97;5054218;28;20227;-76
2022/08/08 09:14:41;;;;;;;7.10;6.50;;;;;;;29.62;73.23;100359.59;5070902;28;20210;-75
2022/08/08 09:17:09;;;;;;;6.70;6.00;;;;;;;29.36;73.63;100321.91;5072177;28;20203;-75
2022/08/08 09:19:36;;;;;;;8.15;6.72;;;;;;;29.66;74.18;100351.31;5068220;28;20204;-76
2022/08/08 09:22:04;;;;;;;7.18;6.50;;;;;;;29.82;75.15;100354.78;5061234;28;20638;-76
2022/08/08 09:24:34;;;;;;;9.68;7.00;;;;;;;30.01;73.57;100343.88;5071549;28;20205;-76
2022/08/08 09:27:07;;;;;;;7.85;6.30;;;;;;;30.12;70.50;100340.53;5071437;28;20534;-76
2022/08/08 09:29:49;;;;;;;10.73;6.03;;;;;;;30.13;71.99;100326.22;5071101;28;20207;-76
2022/08/08 09:32:18;;;;;;;11.80;6.32;;;;;;;30.12;72.00;100324.50;5074631;28;20705;-76
2022/08/08 09:34:50;;;;;;;8.98;6.85;;;;;;;30.16;69.69;100326.03;5064407;28;20234;-76
2022/08/08 09:37:19;;;;;;;10.23;6.70;;;;;;;30.44;69.74;100342.13;5063721;28;20280;-76
2022/08/08 09:39:57;;;;;;;9.00;7.03;;;;;;;30.50;68.08;100315.81;5070987;28;20202;-77
2022/08/08 09:42:32;;;;;;;8.07;5.90;;;;;;;30.63;67.54;100331.13;5071516;28;20198;-78
2022/08/08 09:45:05;;;;;;;6.78;6.18;;;;;;;30.74;67.64;100334.84;5071689;28;20202;-77
2022/08/08 09:47:34;;;;;;;7.20;6.40;;;;;;;30.77;65.92;100317.69;5071685;28;20689;-78
2022/08/08 09:50:04;;;;;;;6.35;5.70;;;;;;;30.69;65.91;100322.69;5071187;28;20193;-76
2022/08/08 09:52:33;;;;;;;7.60;6.05;;;;;;;30.30;67.18;100323.34;5071432;28;20227;-77
2022/08/08 09:55:01;;;;;;;11.65;6.43;;;;;;;30.67;64.15;100322.78;5070204;28;20199;-78
2022/08/08 09:57:34;;;;;;;6.80;6.20;;;;;;;30.67;65.92;100305.88;5043588;28;20191;-77
2022/08/08 10:00:01;;;;;;;8.65;6.15;;;;;;;30.73;64.92;100302.78;5068572;28;20201;-78
2022/08/08 10:02:35;;;;;;;8.73;6.20;;;;;;;30.77;64.19;100305.19;5071285;28;20217;-76
2022/08/08 10:05:11;;;;;;;8.38;5.93;;;;;;;30.57;64.70;100257.41;5068632;28;20201;-77
2022/08/08 10:07:45;;;;;;;9.25;6.53;;;;;;;31.20;62.80;100311.28;5036082;28;20209;-77
2022/08/08 10:10:14;;;;;;;6.75;6.05;;;;;;;31.26;64.63;100304.63;5070720;28;20186;-76
2022/08/08 10:12:40;;;;;;;5.72;5.22;;;;;;;30.81;64.52;100312.06;5068189;28;20241;-77
2022/08/08 10:15:10;;;;;;;6.47;5.85;;;;;;;30.85;66.01;100305.53;5070499;28;20191;-77
2022/08/08 10:17:46;;;;;;;8.60;5.90;;;;;;;30.74;61.70;100217.00;5071051;28;20194;-76
2022/08/08 10:20:14;;;;;;;12.55;5.97;;;;;;;31.03;64.01;100297.28;5071506;28;20194;-73
2022/08/08 10:22:46;;;;;;;5.53;5.03;;;;;;;31.23;61.26;100286.97;5071055;28;20194;-73
2022/08/08 10:25:21;;;;;;;6.07;5.55;;;;;;;31.01;60.68;100256.31;5067352;28;20225;-77
2022/08/08 10:27:52;;;;;;;7.25;5.82;;;;;;;31.01;58.86;100275.06;5070435;28;20271;-75
2022/08/08 10:30:21;;;;;;;5.60;5.10;;;;;;;31.43;56.18;100272.19;5070536;28;20210;-76
2022/08/08 10:32:52;;;;;;;6.53;4.80;;;;;;;31.57;55.24;100269.47;5070721;28;20230;-76
2022/08/08 10:35:21;;;;;;;5.68;5.00;;;;;;;31.37;55.55;100216.34;5070150;28;20214;-75
2022/08/08 10:37:54;;;;;;;6.97;5.13;;;;;;;31.88;56.92;100262.84;5070692;28;20209;-74
2022/08/08 10:40:24;;;;;;;5.20;4.68;;;;;;;31.53;54.70;100200.09;5070614;28;20190;-74
2022/08/08 10:42:57;;;;;;;8.77;4.38;;;;;;;31.94;54.17;100257.91;5051860;28;20203;-76
2022/08/08 10:45:24;;;;;;;6.57;4.80;;;;;;;31.96;54.04;100257.81;5070163;28;20199;-76
2022/08/08 10:47:56;;;;;;;4.88;4.55;;;;;;;32.19;53.53;100245.44;5070482;28;20210;-77
2022/08/08 10:50:31;;;;;;;5.32;4.82;;;;;;;31.99;53.81;100251.34;5070171;28;20202;-76
2022/08/08 10:53:03;;;;;;;13.10;4.90;;;;;;;32.22;53.73;100245.22;5070187;28;20271;-76
2022/08/08 10:55:32;;;;;;;4.60;4.20;;;;;;;32.06;53.51;100231.19;5070044;28;20293;-77
2022/08/08 10:58:03;;;;;;;4.65;4.13;;;;;;;32.02;54.33;100235.03;5070446;28;20194;-75
2022/08/08 11:00:30;;;;;;;6.32;4.20;;;;;;;32.13;52.02;100244.06;5070432;28;20194;-75
2022/08/08 11:03:10;;;;;;;5.38;4.95;;;;;;;32.34;52.09;100233.63;5070330;28;20197;-75
2022/08/08 11:05:43;;;;;;;5.05;4.65;;;;;;;32.33;51.60;100229.19;5069734;28;20198;-75
2022/08/08 11:08:20;;;;;;;5.68;3.92;;;;;;;31.98;50.44;100220.97;5070080;28;20289;-75
2022/08/08 11:10:48;;;;;;;8.48;4.40;;;;;;;32.25;51.10;100224.38;5070029;28;20193;-76
2022/08/08 11:13:20;;;;;;;4.32;3.92;;;;;;;32.26;50.56;100223.44;5070082;28;20230;-76
2022/08/08 11:15:47;;;;;;;5.65;4.45;;;;;;;32.44;50.02;100226.59;5069665;28;20550;-75
2022/08/08 11:18:15;;;;;;;6.88;4.35;;;;;;;32.78;49.95;100223.19;5069967;28;20209;-76
2022/08/08 11:20:42;;;;;;;7.55;4.10;;;;;;;33.09;47.69;100224.41;5070115;28;20194;-76
2022/08/08 11:23:10;;;;;;;5.90;4.20;;;;;;;33.06;47.71;100223.78;5070179;28;20198;-76
2022/08/08 11:25:38;;;;;;;8.90;4.55;;;;;;;33.30;46.28;100219.25;5050634;28;20208;-76
2022/08/08 11:28:10;;;;;;;6.90;4.10;;;;;;;33.24;46.62;100211.66;5069893;28;20324;-76
2022/08/08 11:30:37;;;;;;;7.45;4.63;;;;;;;32.98;47.61;100205.56;5069949;28;20205;-75
2022/08/08 11:33:05;;;;;;;4.40;4.10;;;;;;;32.92;47.81;100209.56;5069938;28;20617;-75
2022/08/08 11:35:33;;;;;;;5.15;4.65;;;;;;;33.13;47.02;100214.31;5069603;28;20198;-75
2022/08/08 11:38:01;;;;;;;4.32;3.92;;;;;;;33.06;46.57;100202.28;5069871;28;20867;-75
2022/08/08 11:40:29;;;;;;;8.00;4.75;;;;;;;33.13;46.30;100200.88;5069946;28;20210;-75
2022/08/08 11:42:57;;;;;;;6.47;4.20;;;;;;;33.20;46.14;100199.44;5070050;28;20206;-75
2022/08/08 11:45:26;;;;;;;4.32;3.92;;;;;;;33.23;45.45;100194.69;5069606;28;20252;-75
2022/08/08 11:47:53;;;;;;;4.05;3.85;;;;;;;33.19;46.08;100198.56;5069653;28;20208;-75
2022/08/08 11:50:20;;;;;;;10.02;4.75;;;;;;;33.38;46.49;100192.63;5069778;28;20194;-75
2022/08/08 11:52:48;;;;;;;4.28;3.97;;;;;;;33.73;45.32;100187.22;5034485;28;20233;-75
2022/08/08 11:55:17;;;;;;;4.47;3.83;;;;;;;33.30;45.20;100181.59;5069702;28;20198;-74
2022/08/08 11:57:44;;;;;;;4.30;3.90;;;;;;;33.41;44.81;100173.56;5069488;28;20202;-76
2022/08/08 12:00:17;;;;;;;6.13;4.35;;;;;;;33.76;44.92;100178.88;5069755;28;20213;-75